Time;durP1;ratioP1;P1;durP2;ratioP2;P2;SDS_P1;SDS_P2;PMS_P1;PMS_P2;Temp;Humidity;BMP_temperature;BMP_pressure;BME280_temperature;BME280_humidity;BME280_pressure;Samples;Min_cycle;Max_cycle;Signal;HPM_P1;HPM_P2
2022/08/14 00:01:48;;;;;;;;;;;23.00;90.30;;;;;;4842896;29;19919;-34
2022/08/14 00:04:14;;;;;;;;;;;23.00;90.60;;;;;;4846592;29;19913;-33
2022/08/14 00:06:40;;;;;;;;;;;22.90;90.40;;;;;;4840793;29;19919;-34
2022/08/14 00:09:05;;;;;;;;;;;22.90;90.40;;;;;;4845323;29;20214;-39
2022/08/14 00:11:31;;;;;;;;;;;22.90;90.50;;;;;;4844778;29;19995;-35
2022/08/14 00:13:56;;;;;;;;;;;22.80;90.60;;;;;;4848782;29;19916;-37
2022/08/14 00:16:22;;;;;;;;;;;22.80;90.70;;;;;;4855083;29;19912;-37
2022/08/14 00:18:47;;;;;;;;;;;22.80;90.80;;;;;;4845569;29;19916;-38
2022/08/14 00:21:13;;;;;;;;;;;22.80;90.70;;;;;;4839418;29;19916;-33
2022/08/14 00:23:39;;;;;;;;;;;22.80;90.70;;;;;;4846388;29;20446;-36
2022/08/14 00:26:05;;;;;;;;;;;22.80;90.60;;;;;;4839102;29;19960;-36
2022/08/14 00:28:30;;;;;;;;;;;22.80;90.70;;;;;;4841776;29;19942;-38
2022/08/14 00:30:57;;;;;;;;;;;22.80;90.80;;;;;;4838880;29;19920;-38
2022/08/14 00:33:24;;;;;;;;;;;22.70;90.80;;;;;;4867665;29;20354;-32
2022/08/14 00:35:49;;;;;;;;;;;22.70;90.90;;;;;;4844810;29;19928;-39
2022/08/14 00:38:16;;;;;;;;;;;22.70;90.90;;;;;;4846252;29;19947;-34
2022/08/14 00:40:41;;;;;;;;;;;22.70;91.00;;;;;;4833060;29;19955;-36
2022/08/14 00:43:08;;;;;;;;;;;22.60;91.00;;;;;;4848148;29;20326;-38
2022/08/14 00:45:34;;;;;;;;;;;22.70;91.10;;;;;;4847907;29;19916;-30
2022/08/14 00:48:00;;;;;;;;;;;22.70;91.10;;;;;;4841801;29;19927;-38
2022/08/14 00:50:27;;;;;;;;;;;22.60;91.40;;;;;;4841487;29;19919;-35
2022/08/14 00:53:12;;;;;;;;;;;22.60;91.40;;;;;;4825557;29;19943;-37
2022/08/14 00:55:40;;;;;;;;;;;22.60;91.40;;;;;;4846069;29;20322;-39
2022/08/14 01:00:50;;;;;;;;;;;22.50;91.40;;;;;;4844771;29;19961;-35
2022/08/14 01:03:16;;;;;;;;;;;22.50;91.40;;;;;;4851246;29;19912;-37
2022/08/14 01:05:48;;;;;;;;;;;22.50;91.50;;;;;;4838319;29;19916;-38
2022/08/14 01:08:21;;;;;;;;;;;22.50;91.50;;;;;;4846215;29;20305;-36
2022/08/14 01:10:50;;;;;;;;;;;22.50;91.60;;;;;;4846351;29;20560;-33
2022/08/14 01:13:18;;;;;;;;;;;22.50;91.60;;;;;;4844844;29;19919;-41
2022/08/14 01:15:44;;;;;;;;;;;22.50;91.60;;;;;;4841332;29;19916;-46
2022/08/14 01:21:09;;;;;;;;;;;22.50;91.70;;;;;;4838453;29;20384;-39
2022/08/14 01:23:37;;;;;;;;;;;22.50;91.80;;;;;;4848984;29;19976;-34
2022/08/14 01:26:03;;;;;;;;;;;22.40;91.90;;;;;;4842792;29;19912;-33
2022/08/14 01:28:30;;;;;;;;;;;22.40;92.00;;;;;;4825851;29;19920;-34
2022/08/14 01:30:57;;;;;;;;;;;22.40;92.00;;;;;;4844165;29;19927;-37
2022/08/14 01:33:27;;;;;;;;;;;22.40;92.10;;;;;;4855627;29;19942;-40
2022/08/14 01:35:56;;;;;;;;;;;22.40;92.20;;;;;;4848349;29;20368;-36
2022/08/14 01:38:23;;;;;;;;;;;22.50;92.20;;;;;;4826108;29;19912;-41
2022/08/14 01:40:48;;;;;;;;;;;22.40;92.20;;;;;;4841325;29;20323;-40
2022/08/14 01:43:17;;;;;;;;;;;22.40;92.40;;;;;;4846599;29;19968;-34
2022/08/14 01:45:43;;;;;;;;;;;22.40;92.40;;;;;;4844082;29;20422;-38
2022/08/14 01:48:09;;;;;;;;;;;22.40;92.50;;;;;;4840269;29;20492;-40
2022/08/14 01:50:35;;;;;;;;;;;22.30;92.50;;;;;;4840957;29;20366;-36
2022/08/14 01:53:02;;;;;;;;;;;22.30;92.60;;;;;;4846490;29;19909;-38
2022/08/14 01:55:30;;;;;;;;;;;22.30;92.70;;;;;;4844092;29;20452;-42
2022/08/14 01:57:55;;;;;;;;;;;22.30;92.80;;;;;;4841747;29;20342;-42
2022/08/14 02:00:21;;;;;;;;;;;22.30;92.90;;;;;;4843903;29;20051;-41
2022/08/14 02:02:46;;;;;;;;;;;22.20;92.90;;;;;;4848447;29;20388;-41
2022/08/14 02:05:12;;;;;;;;;;;22.20;93.00;;;;;;4852697;29;19915;-39
2022/08/14 02:07:39;;;;;;;;;;;22.20;93.10;;;;;;4823460;29;19916;-44
2022/08/14 02:10:05;;;;;;;;;;;22.20;93.20;;;;;;4844664;29;20433;-38
2022/08/14 02:12:31;;;;;;;;;;;22.20;93.30;;;;;;4840729;29;20381;-41
2022/08/14 02:14:59;;;;;;;;;;;22.20;93.40;;;;;;4843252;29;19909;-37
2022/08/14 02:17:25;;;;;;;;;;;22.20;93.40;;;;;;4840760;29;19919;-38
2022/08/14 02:19:52;;;;;;;;;;;22.20;93.40;;;;;;4834524;29;19915;-36
2022/08/14 02:22:17;;;;;;;;;;;22.20;93.50;;;;;;4824471;29;20285;-40
2022/08/14 02:24:43;;;;;;;;;;;22.20;93.60;;;;;;4845547;29;19912;-35
2022/08/14 02:27:11;;;;;;;;;;;22.20;93.70;;;;;;4842655;29;20067;-37
2022/08/14 02:29:39;;;;;;;;;;;22.10;93.70;;;;;;4856124;29;19912;-40
2022/08/14 02:32:05;;;;;;;;;;;22.10;93.80;;;;;;4825134;29;19912;-37
2022/08/14 02:34:31;;;;;;;;;;;22.10;93.80;;;;;;4851706;29;19969;-36
2022/08/14 02:37:01;;;;;;;;;;;22.10;93.90;;;;;;4840641;29;19916;-38
2022/08/14 02:39:27;;;;;;;;;;;22.00;94.00;;;;;;4841653;29;20408;-38
2022/08/14 02:41:53;;;;;;;;;;;22.00;94.00;;;;;;4850044;29;20464;-34
2022/08/14 02:44:21;;;;;;;;;;;22.00;94.10;;;;;;4849645;29;19912;-53
2022/08/14 02:46:48;;;;;;;;;;;22.00;94.10;;;;;;4830170;29;20378;-39
2022/08/14 02:49:13;;;;;;;;;;;22.00;94.20;;;;;;4840785;29;19952;-41
2022/08/14 02:51:40;;;;;;;;;;;22.00;94.30;;;;;;4840290;29;20400;-39
2022/08/14 02:54:06;;;;;;;;;;;22.00;94.40;;;;;;4846856;29;19916;-34
2022/08/14 02:56:32;;;;;;;;;;;22.00;94.40;;;;;;4855528;29;19970;-44
2022/08/14 02:59:00;;;;;;;;;;;21.90;94.50;;;;;;4848559;29;20290;-41
2022/08/14 03:01:27;;;;;;;;;;;21.90;94.50;;;;;;4842900;29;20357;-40
2022/08/14 03:03:54;;;;;;;;;;;21.90;94.60;;;;;;4853961;29;20456;-40
2022/08/14 03:06:21;;;;;;;;;;;21.90;94.60;;;;;;4844262;29;19909;-36
2022/08/14 03:08:47;;;;;;;;;;;21.80;94.70;;;;;;4855428;29;19916;-36
2022/08/14 03:11:12;;;;;;;;;;;21.80;94.70;;;;;;4842853;29;19924;-38
2022/08/14 03:13:39;;;;;;;;;;;21.80;94.80;;;;;;4852435;29;19963;-34
2022/08/14 03:16:23;;;;;;;;;;;21.80;94.80;;;;;;4846399;29;20033;-38
2022/08/14 03:18:53;;;;;;;;;;;21.80;94.90;;;;;;4839382;29;19964;-39
2022/08/14 03:21:19;;;;;;;;;;;21.80;94.90;;;;;;4823400;29;20294;-40
2022/08/14 03:23:47;;;;;;;;;;;21.80;95.00;;;;;;4828569;29;20388;-37
2022/08/14 03:26:14;;;;;;;;;;;21.70;95.10;;;;;;4844571;29;19962;-34
2022/08/14 03:28:41;;;;;;;;;;;21.70;95.10;;;;;;4844969;29;19938;-35
2022/08/14 03:31:07;;;;;;;;;;;21.70;95.20;;;;;;4846173;29;19912;-38
2022/08/14 03:33:35;;;;;;;;;;;21.70;95.30;;;;;;4853791;29;19987;-41
2022/08/14 03:36:04;;;;;;;;;;;21.70;95.30;;;;;;4843628;29;20387;-38
2022/08/14 03:38:29;;;;;;;;;;;21.70;95.40;;;;;;4846551;29;20004;-35
2022/08/14 03:40:55;;;;;;;;;;;21.60;95.50;;;;;;4843062;29;20413;-35
2022/08/14 03:43:21;;;;;;;;;;;21.60;95.60;;;;;;4837070;29;20211;-34
2022/08/14 03:45:46;;;;;;;;;;;21.60;95.60;;;;;;4839382;29;19919;-37
2022/08/14 03:48:18;;;;;;;;;;;21.60;95.70;;;;;;4851872;29;19955;-41
2022/08/14 03:50:53;;;;;;;;;;;21.60;95.70;;;;;;4846641;29;19916;-43
2022/08/14 03:53:19;;;;;;;;;;;21.60;95.70;;;;;;4848457;29;19950;-41
2022/08/14 03:55:45;;;;;;;;;;;21.60;95.80;;;;;;4854125;29;19912;-37
2022/08/14 03:58:11;;;;;;;;;;;21.60;95.80;;;;;;4837836;29;19913;-37
2022/08/14 04:00:37;;;;;;;;;;;21.60;95.80;;;;;;4841086;29;19919;-44
2022/08/14 04:03:04;;;;;;;;;;;21.70;95.70;;;;;;4845300;29;20372;-37
2022/08/14 04:05:30;;;;;;;;;;;21.70;95.70;;;;;;4854243;29;19977;-47
2022/08/14 04:07:57;;;;;;;;;;;21.70;95.60;;;;;;4844233;29;19915;-46
2022/08/14 04:10:22;;;;;;;;;;;21.70;95.60;;;;;;4840536;29;20350;-35
2022/08/14 04:12:48;;;;;;;;;;;21.70;95.70;;;;;;4839749;29;19912;-41
2022/08/14 04:15:14;;;;;;;;;;;21.70;95.70;;;;;;4838370;29;20004;-39
2022/08/14 04:17:42;;;;;;;;;;;21.80;95.70;;;;;;4843791;29;19908;-36
2022/08/14 04:20:08;;;;;;;;;;;21.70;95.80;;;;;;4851409;29;19912;-52
2022/08/14 04:22:34;;;;;;;;;;;21.60;95.90;;;;;;4842342;29;19945;-37
2022/08/14 04:25:00;;;;;;;;;;;21.60;96.30;;;;;;4839388;29;19912;-34
2022/08/14 04:27:26;;;;;;;;;;;21.50;96.20;;;;;;4839322;29;19924;-39
2022/08/14 04:29:52;;;;;;;;;;;21.40;96.30;;;;;;4842244;29;19919;-38
2022/08/14 04:32:19;;;;;;;;;;;21.40;96.40;;;;;;4842294;29;20361;-36
2022/08/14 04:34:44;;;;;;;;;;;21.30;96.60;;;;;;4841466;29;19912;-39
2022/08/14 04:45:25;;;;;;;;;;;21.10;97.10;;;;;;4846808;29;19962;-35
2022/08/14 04:50:35;;;;;;;;;;;20.90;97.30;;;;;;4845232;29;19923;-43
2022/08/14 04:53:01;;;;;;;;;;;20.90;97.70;;;;;;4841692;29;19912;-39
2022/08/14 04:55:27;;;;;;;;;;;20.90;97.70;;;;;;4848396;29;19912;-38
2022/08/14 04:57:53;;;;;;;;;;;20.90;97.70;;;;;;4843738;29;20393;-37
2022/08/14 05:00:18;;;;;;;;;;;20.90;97.90;;;;;;4843002;29;19912;-40
2022/08/14 05:02:44;;;;;;;;;;;20.90;98.00;;;;;;4844993;29;20361;-39
2022/08/14 05:05:10;;;;;;;;;;;20.90;98.00;;;;;;4847663;29;19912;-36
2022/08/14 05:07:35;;;;;;;;;;;20.90;98.10;;;;;;4848580;29;20154;-36
2022/08/14 05:10:00;;;;;;;;;;;20.90;98.10;;;;;;4838558;29;19919;-37
2022/08/14 05:12:27;;;;;;;;;;;21.00;98.20;;;;;;4847675;29;19984;-36
2022/08/14 05:14:53;;;;;;;;;;;20.90;98.30;;;;;;4851405;29;20289;-37
2022/08/14 05:17:18;;;;;;;;;;;21.00;98.40;;;;;;4849754;29;20143;-41
2022/08/14 05:19:44;;;;;;;;;;;20.90;98.60;;;;;;4843412;29;19959;-42
2022/08/14 05:22:09;;;;;;;;;;;20.90;98.60;;;;;;4838098;29;20319;-39
2022/08/14 05:24:35;;;;;;;;;;;21.00;98.60;;;;;;4838599;29;19977;-36
2022/08/14 05:27:02;;;;;;;;;;;21.00;98.60;;;;;;4820452;29;20119;-37
2022/08/14 05:29:28;;;;;;;;;;;21.10;98.70;;;;;;4841466;29;19912;-35
2022/08/14 05:31:55;;;;;;;;;;;21.10;98.70;;;;;;4843350;29;19976;-36
2022/08/14 05:34:22;;;;;;;;;;;21.10;98.70;;;;;;4838106;29;20347;-40
2022/08/14 05:36:48;;;;;;;;;;;21.10;98.80;;;;;;4847282;29;19993;-37
2022/08/14 05:39:13;;;;;;;;;;;21.20;98.70;;;;;;4846902;29;20360;-38
2022/08/14 05:41:39;;;;;;;;;;;21.20;98.70;;;;;;4837415;29;19999;-41
2022/08/14 05:44:04;;;;;;;;;;;21.30;98.80;;;;;;4850858;29;19921;-39
2022/08/14 05:46:30;;;;;;;;;;;21.40;98.70;;;;;;4843074;29;19916;-35
2022/08/14 05:48:56;;;;;;;;;;;21.40;98.70;;;;;;4828141;29;20492;-37
2022/08/14 05:51:22;;;;;;;;;;;21.50;98.70;;;;;;4828876;29;19916;-37
2022/08/14 05:53:48;;;;;;;;;;;21.50;98.80;;;;;;4837312;29;19912;-36
2022/08/14 05:56:14;;;;;;;;;;;21.50;98.80;;;;;;4841832;29;20456;-36
2022/08/14 05:58:39;;;;;;;;;;;21.60;98.70;;;;;;4849354;29;19999;-38
2022/08/14 06:01:05;;;;;;;;;;;21.60;98.80;;;;;;4830829;29;19912;-42
2022/08/14 06:03:30;;;;;;;;;;;21.70;98.80;;;;;;4841652;29;20362;-38
2022/08/14 06:05:56;;;;;;;;;;;21.70;98.70;;;;;;4852696;29;19916;-41
2022/08/14 06:08:22;;;;;;;;;;;21.80;98.70;;;;;;4840123;29;20274;-36
2022/08/14 06:10:49;;;;;;;;;;;22.00;98.40;;;;;;4845877;29;20371;-38
2022/08/14 06:13:15;;;;;;;;;;;22.10;98.50;;;;;;4846558;29;19912;-47
2022/08/14 06:15:41;;;;;;;;;;;22.20;98.40;;;;;;4841270;29;19966;-40
2022/08/14 06:18:07;;;;;;;;;;;22.30;98.20;;;;;;4851976;29;19984;-39
2022/08/14 06:20:32;;;;;;;;;;;22.50;98.10;;;;;;4844475;29;20381;-48
2022/08/14 06:22:58;;;;;;;;;;;22.60;97.90;;;;;;4841539;29;19912;-47
2022/08/14 06:25:24;;;;;;;;;;;22.80;97.60;;;;;;4851520;29;19920;-37
2022/08/14 06:27:50;;;;;;;;;;;22.90;97.10;;;;;;4855943;29;20313;-38
2022/08/14 06:30:17;;;;;;;;;;;23.00;97.00;;;;;;4852301;29;19984;-37
2022/08/14 06:32:43;;;;;;;;;;;23.20;96.80;;;;;;4849415;29;19913;-37
2022/08/14 06:35:09;;;;;;;;;;;23.40;96.50;;;;;;4864039;29;20259;-37
2022/08/14 06:37:42;;;;;;;;;;;23.60;96.10;;;;;;4843789;29;19912;-43
2022/08/14 06:40:08;;;;;;;;;;;23.70;96.00;;;;;;4841225;29;19913;-39
2022/08/14 06:42:34;;;;;;;;;;;23.90;95.30;;;;;;4853670;29;19919;-38
2022/08/14 06:45:02;;;;;;;;;;;24.00;95.30;;;;;;4834462;29;19912;-38
2022/08/14 06:47:28;;;;;;;;;;;24.00;95.40;;;;;;4856731;29;20007;-40
2022/08/14 06:49:53;;;;;;;;;;;24.20;95.20;;;;;;4853964;29;20044;-37
2022/08/14 06:52:19;;;;;;;;;;;24.20;95.20;;;;;;4846520;29;20001;-38
2022/08/14 06:54:44;;;;;;;;;;;24.30;95.20;;;;;;4841957;29;19912;-37
2022/08/14 06:57:10;;;;;;;;;;;24.40;95.20;;;;;;4853281;29;19939;-44
2022/08/14 06:59:36;;;;;;;;;;;24.50;95.00;;;;;;4853732;29;19916;-37
2022/08/14 07:07:37;;;;;;;;;;;24.80;94.70;;;;;;4840617;29;19923;-39
2022/08/14 07:10:03;;;;;;;;;;;25.00;94.40;;;;;;4845546;29;19939;-38
2022/08/14 07:12:29;;;;;;;;;;;25.00;94.70;;;;;;4840103;29;20330;-33
2022/08/14 07:14:54;;;;;;;;;;;25.10;94.40;;;;;;4847009;29;19912;-36
2022/08/14 07:17:20;;;;;;;;;;;25.20;94.30;;;;;;4844738;29;20538;-36
2022/08/14 07:19:45;;;;;;;;;;;25.40;94.10;;;;;;4848593;29;19916;-39
2022/08/14 07:22:11;;;;;;;;;;;25.40;94.00;;;;;;4844460;29;19912;-39
2022/08/14 07:24:36;;;;;;;;;;;25.60;93.70;;;;;;4832672;29;19912;-41
2022/08/14 07:27:02;;;;;;;;;;;25.60;93.80;;;;;;4848330;29;20246;-36
2022/08/14 07:29:27;;;;;;;;;;;25.70;93.60;;;;;;4837613;29;19920;-39
2022/08/14 07:31:53;;;;;;;;;;;25.80;93.30;;;;;;4844860;29;19920;-39
2022/08/14 07:34:18;;;;;;;;;;;25.80;93.50;;;;;;4838208;29;19941;-41
2022/08/14 07:36:44;;;;;;;;;;;25.90;93.30;;;;;;4837325;29;19917;-38
2022/08/14 07:39:09;;;;;;;;;;;26.00;93.20;;;;;;4838250;29;19912;-38
2022/08/14 07:41:35;;;;;;;;;;;26.10;93.40;;;;;;4820960;29;20369;-32
2022/08/14 07:44:01;;;;;;;;;;;26.10;93.40;;;;;;4836340;29;19920;-39
2022/08/14 07:46:26;;;;;;;;;;;26.30;93.10;;;;;;4818472;29;20381;-38
2022/08/14 07:48:52;;;;;;;;;;;26.50;93.00;;;;;;4819511;29;19928;-38
2022/08/14 07:51:18;;;;;;;;;;;26.50;92.80;;;;;;4818329;29;19928;-37
2022/08/14 07:53:44;;;;;;;;;;;26.70;92.80;;;;;;4826191;29;19991;-39
2022/08/14 07:56:09;;;;;;;;;;;26.80;92.90;;;;;;4823450;29;20003;-37
2022/08/14 07:58:36;;;;;;;;;;;27.00;92.60;;;;;;4821448;29;19949;-40
2022/08/14 08:01:03;;;;;;;;;;;27.10;92.80;;;;;;4819107;29;19913;-40
2022/08/14 08:03:30;;;;;;;;;;;27.20;92.50;;;;;;4819375;29;19942;-39
2022/08/14 08:05:56;;;;;;;;;;;27.40;92.40;;;;;;4817379;29;19913;-38
2022/08/14 08:08:23;;;;;;;;;;;27.50;92.50;;;;;;4818758;29;20301;-40
2022/08/14 08:10:49;;;;;;;;;;;27.50;92.40;;;;;;4818503;29;19995;-35
2022/08/14 08:13:15;;;;;;;;;;;27.70;91.80;;;;;;4823939;29;19929;-38
2022/08/14 08:15:42;;;;;;;;;;;27.90;91.60;;;;;;4822353;29;20462;-39
2022/08/14 08:18:09;;;;;;;;;;;28.00;91.40;;;;;;4820822;29;20041;-34
2022/08/14 08:20:36;;;;;;;;;;;28.00;91.30;;;;;;4816562;29;19913;-39
2022/08/14 08:23:03;;;;;;;;;;;28.10;91.30;;;;;;4819374;29;20421;-36
2022/08/14 08:25:30;;;;;;;;;;;28.30;91.30;;;;;;4816894;29;19921;-36
2022/08/14 08:27:58;;;;;;;;;;;28.50;91.50;;;;;;4818977;29;20019;-38
2022/08/14 08:30:24;;;;;;;;;;;28.70;91.00;;;;;;4822671;29;20274;-40
2022/08/14 08:32:51;;;;;;;;;;;28.80;90.80;;;;;;4828944;29;19921;-37
2022/08/14 08:35:21;;;;;;;;;;;28.80;90.90;;;;;;4813008;29;19920;-38
2022/08/14 08:37:47;;;;;;;;;;;28.90;90.20;;;;;;4816211;29;19919;-39
2022/08/14 08:40:23;;;;;;;;;;;29.10;90.00;;;;;;4818519;29;19919;-37
2022/08/14 08:42:48;;;;;;;;;;;29.20;88.30;;;;;;4819709;29;20016;-35
2022/08/14 08:45:15;;;;;;;;;;;29.40;88.80;;;;;;4824532;29;20098;-37
2022/08/14 08:47:40;;;;;;;;;;;29.50;88.40;;;;;;4820475;29;19927;-37
2022/08/14 08:50:19;;;;;;;;;;;29.80;88.20;;;;;;4819788;29;20300;-36
2022/08/14 08:52:51;;;;;;;;;;;29.90;88.40;;;;;;4823925;29;20269;-33
2022/08/14 08:55:30;;;;;;;;;;;30.20;87.80;;;;;;4823972;29;19967;-36
2022/08/14 08:57:56;;;;;;;;;;;30.50;88.10;;;;;;4831098;29;20012;-36
2022/08/14 09:00:22;;;;;;;;;;;30.80;87.30;;;;;;4823262;29;19921;-37
2022/08/14 09:02:54;;;;;;;;;;;30.90;87.40;;;;;;4818537;29;19912;-38
2022/08/14 09:05:19;;;;;;;;;;;31.10;87.60;;;;;;4818805;29;20374;-37
2022/08/14 09:07:45;;;;;;;;;;;31.40;85.30;;;;;;4822249;29;19920;-41
2022/08/14 09:10:10;;;;;;;;;;;31.60;84.50;;;;;;4818435;29;19926;-37
2022/08/14 09:12:36;;;;;;;;;;;31.90;83.30;;;;;;4824288;29;20657;-33
2022/08/14 09:15:05;;;;;;;;;;;32.30;81.90;;;;;;4821087;29;21564;-33
2022/08/14 09:17:31;;;;;;;;;;;32.60;81.80;;;;;;4823422;29;20389;-47
2022/08/14 09:19:57;;;;;;;;;;;32.60;81.00;;;;;;4817258;29;19913;-35
2022/08/14 09:22:23;;;;;;;;;;;32.70;81.50;;;;;;4825970;29;20011;-41
2022/08/14 09:24:49;;;;;;;;;;;32.90;81.60;;;;;;4821344;29;19923;-38
2022/08/14 09:27:15;;;;;;;;;;;33.10;81.70;;;;;;4822076;29;19924;-38
2022/08/14 09:29:40;;;;;;;;;;;33.60;80.80;;;;;;4821830;29;19913;-43
2022/08/14 09:32:08;;;;;;;;;;;34.00;80.30;;;;;;4826335;29;20012;-39
2022/08/14 09:34:53;;;;;;;;;;;34.20;80.30;;;;;;4822295;29;20421;-39
2022/08/14 09:37:18;;;;;;;;;;;34.60;79.60;;;;;;4819758;29;19950;-40
2022/08/14 09:39:44;;;;;;;;;;;34.80;79.40;;;;;;4828603;29;19955;-40
2022/08/14 09:42:36;;;;;;;;;;;35.10;79.20;;;;;;4824891;29;19920;-39
2022/08/14 09:45:09;;;;;;;;;;;35.30;79.90;;;;;;4823808;29;19917;-41
2022/08/14 09:47:47;;;;;;;;;;;35.60;78.20;;;;;;4841086;29;20438;-41
2022/08/14 09:50:28;;;;;;;;;;;35.80;78.40;;;;;;4845079;29;20381;-38
2022/08/14 09:52:57;;;;;;;;;;;35.80;76.40;;;;;;4852405;29;20001;-38
2022/08/14 09:55:23;;;;;;;;;;;35.10;77.90;;;;;;4844853;29;19977;-39
2022/08/14 09:57:49;;;;;;;;;;;34.90;78.40;;;;;;4842665;29;19913;-43
2022/08/14 10:00:17;;;;;;;;;;;34.90;78.60;;;;;;4842757;29;19979;-35
2022/08/14 10:02:53;;;;;;;;;;;34.80;78.30;;;;;;4847848;29;19912;-37
2022/08/14 10:05:29;;;;;;;;;;;35.00;78.90;;;;;;4841592;29;19909;-39
2022/08/14 10:07:54;;;;;;;;;;;35.40;77.90;;;;;;4841597;29;20362;-42
2022/08/14 10:10:29;;;;;;;;;;;35.60;77.60;;;;;;4853172;29;19998;-39
2022/08/14 10:12:55;;;;;;;;;;;35.60;77.90;;;;;;4851364;29;19999;-39
2022/08/14 10:15:27;;;;;;;;;;;35.40;77.20;;;;;;4847768;29;20015;-40
2022/08/14 10:18:02;;;;;;;;;;;35.20;74.60;;;;;;4842471;29;19916;-39
2022/08/14 10:20:37;;;;;;;;;;;34.80;74.70;;;;;;4853573;29;19914;-38
2022/08/14 10:23:10;;;;;;;;;;;34.50;75.60;;;;;;4825271;29;19908;-39
2022/08/14 10:25:39;;;;;;;;;;;34.50;76.30;;;;;;4853498;29;19919;-39
2022/08/14 10:28:05;;;;;;;;;;;34.60;76.00;;;;;;4847812;29;20027;-37
2022/08/14 10:30:35;;;;;;;;;;;35.00;74.80;;;;;;4846247;29;20004;-39
2022/08/14 10:33:01;;;;;;;;;;;35.30;73.40;;;;;;4849670;29;19912;-37
2022/08/14 10:35:26;;;;;;;;;;;35.30;73.40;;;;;;4842413;29;20002;-39
2022/08/14 10:37:52;;;;;;;;;;;35.50;71.30;;;;;;4845508;29;19919;-37
2022/08/14 10:40:28;;;;;;;;;;;35.60;72.10;;;;;;4846237;29;19923;-38
2022/08/14 10:42:54;;;;;;;;;;;35.60;73.00;;;;;;4839288;29;20214;-38
2022/08/14 10:45:22;;;;;;;;;;;35.40;73.00;;;;;;4841274;29;19920;-38
2022/08/14 10:47:49;;;;;;;;;;;35.30;73.40;;;;;;4848576;29;19968;-40
2022/08/14 10:50:14;;;;;;;;;;;35.20;74.10;;;;;;4848601;29;19916;-39
2022/08/14 10:52:41;;;;;;;;;;;35.20;74.20;;;;;;4854190;29;20376;-40
2022/08/14 10:55:08;;;;;;;;;;;35.10;75.90;;;;;;4857099;29;19919;-39
2022/08/14 10:57:45;;;;;;;;;;;34.90;75.00;;;;;;4847810;29;20012;-39
2022/08/14 11:00:15;;;;;;;;;;;34.80;75.10;;;;;;4841122;29;19920;-37
2022/08/14 11:02:41;;;;;;;;;;;34.70;74.10;;;;;;4842950;29;20151;-37
2022/08/14 11:05:14;;;;;;;;;;;34.50;74.60;;;;;;4843791;29;20611;-34
2022/08/14 11:07:56;;;;;;;;;;;34.30;74.90;;;;;;4833033;29;20408;-38
2022/08/14 11:10:24;;;;;;;;;;;34.20;74.80;;;;;;4844123;29;19960;-38
2022/08/14 11:12:51;;;;;;;;;;;34.10;75.40;;;;;;4841555;29;20281;-37
2022/08/14 11:15:18;;;;;;;;;;;34.20;74.40;;;;;;4842016;29;20319;-36
2022/08/14 11:17:46;;;;;;;;;;;34.30;73.80;;;;;;4849957;29;19912;-40
2022/08/14 11:20:12;;;;;;;;;;;34.30;73.50;;;;;;4839962;29;20428;-38
2022/08/14 11:22:40;;;;;;;;;;;34.30;72.20;;;;;;4841820;29;19972;-37
2022/08/14 11:25:06;;;;;;;;;;;34.20;73.10;;;;;;4836097;29;19912;-37
2022/08/14 11:27:32;;;;;;;;;;;34.20;73.50;;;;;;4845688;29;20634;-31
2022/08/14 11:29:59;;;;;;;;;;;34.10;74.50;;;;;;4839876;29;19913;-30
2022/08/14 11:32:25;;;;;;;;;;;34.20;75.40;;;;;;4841215;29;19913;-35
2022/08/14 11:34:52;;;;;;;;;;;34.20;74.50;;;;;;4842107;29;20289;-35
2022/08/14 11:37:17;;;;;;;;;;;34.10;74.70;;;;;;4840940;29;19917;-38
2022/08/14 11:39:43;;;;;;;;;;;34.10;72.80;;;;;;4839286;29;20331;-33
2022/08/14 11:42:18;;;;;;;;;;;34.00;73.00;;;;;;4847725;29;19999;-35
2022/08/14 11:44:43;;;;;;;;;;;34.10;72.90;;;;;;4838729;29;19916;-35
2022/08/14 11:47:18;;;;;;;;;;;34.30;72.50;;;;;;4845707;29;19916;-36
2022/08/14 11:49:44;;;;;;;;;;;34.30;73.30;;;;;;4829204;29;19988;-36
2022/08/14 11:52:11;;;;;;;;;;;34.50;72.40;;;;;;4843223;29;19917;-37
2022/08/14 11:54:37;;;;;;;;;;;34.70;71.60;;;;;;4840466;29;19995;-36
2022/08/14 11:57:04;;;;;;;;;;;34.80;70.60;;;;;;4845388;29;20011;-35
2022/08/14 11:59:32;;;;;;;;;;;34.80;69.90;;;;;;4843373;29;19994;-36
2022/08/14 12:02:07;;;;;;;;;;;34.90;70.70;;;;;;4822287;29;20024;-38
2022/08/14 12:04:34;;;;;;;;;;;34.80;71.00;;;;;;4849568;29;20015;-40
2022/08/14 12:06:59;;;;;;;;;;;34.80;71.40;;;;;;4839656;29;20440;-37
2022/08/14 12:09:31;;;;;;;;;;;34.70;70.40;;;;;;4841076;29;19916;-33
2022/08/14 12:11:57;;;;;;;;;;;34.50;71.40;;;;;;4847359;29;19918;-39
2022/08/14 12:14:23;;;;;;;;;;;34.60;70.70;;;;;;4846159;29;19920;-32
2022/08/14 12:17:05;;;;;;;;;;;34.50;70.90;;;;;;4847184;29;19920;-37
2022/08/14 12:19:41;;;;;;;;;;;34.50;71.20;;;;;;4823343;29;20454;-39
2022/08/14 12:22:07;;;;;;;;;;;34.40;71.50;;;;;;4840632;29;19912;-39
2022/08/14 12:24:32;;;;;;;;;;;34.30;69.40;;;;;;4843043;29;19923;-41
2022/08/14 12:26:58;;;;;;;;;;;34.30;70.40;;;;;;4850808;29;19919;-47
2022/08/14 12:29:24;;;;;;;;;;;34.40;68.70;;;;;;4840525;29;19955;-39
2022/08/14 12:32:00;;;;;;;;;;;34.60;67.00;;;;;;4840862;29;19991;-46
2022/08/14 12:34:30;;;;;;;;;;;34.60;66.20;;;;;;4846932;29;19915;-39
2022/08/14 12:37:05;;;;;;;;;;;34.60;67.60;;;;;;4842777;29;19912;-39
2022/08/14 12:39:32;;;;;;;;;;;34.60;67.30;;;;;;4846143;29;20057;-38
2022/08/14 12:42:05;;;;;;;;;;;34.60;67.50;;;;;;4840272;29;20381;-32
2022/08/14 12:44:32;;;;;;;;;;;34.60;67.50;;;;;;4840209;29;20392;-38
2022/08/14 12:47:16;;;;;;;;;;;34.70;67.40;;;;;;4840501;29;19916;-33
2022/08/14 12:49:53;;;;;;;;;;;34.70;67.60;;;;;;4844016;29;19920;-37
2022/08/14 12:52:28;;;;;;;;;;;34.80;67.10;;;;;;4848623;29;19912;-41
2022/08/14 12:54:58;;;;;;;;;;;34.90;67.40;;;;;;4841207;29;20388;-34
2022/08/14 12:57:31;;;;;;;;;;;34.80;68.00;;;;;;4843988;29;19917;-34
2022/08/14 13:00:05;;;;;;;;;;;34.80;68.60;;;;;;4843514;29;20389;-37
2022/08/14 13:02:36;;;;;;;;;;;34.90;68.70;;;;;;4841582;29;19912;-35
2022/08/14 13:05:03;;;;;;;;;;;34.90;66.40;;;;;;4847573;29;20335;-37
2022/08/14 13:07:28;;;;;;;;;;;34.90;66.70;;;;;;4838972;29;20327;-40
2022/08/14 13:09:55;;;;;;;;;;;34.90;67.00;;;;;;4837766;29;19909;-40
2022/08/14 13:12:24;;;;;;;;;;;35.10;68.00;;;;;;4839488;29;20294;-37
2022/08/14 13:14:49;;;;;;;;;;;35.10;69.00;;;;;;4839858;29;20361;-35
2022/08/14 13:17:15;;;;;;;;;;;35.30;68.80;;;;;;4840467;29;19920;-38
2022/08/14 13:19:41;;;;;;;;;;;35.40;68.40;;;;;;4847544;29;19941;-39
2022/08/14 13:22:07;;;;;;;;;;;35.40;67.10;;;;;;4844592;29;19919;-41
2022/08/14 13:24:33;;;;;;;;;;;35.40;66.90;;;;;;4842633;29;19912;-39
2022/08/14 13:27:02;;;;;;;;;;;35.30;66.70;;;;;;4847685;29;20163;-37
2022/08/14 13:29:31;;;;;;;;;;;35.50;65.60;;;;;;4847255;29;20230;-39
2022/08/14 13:31:57;;;;;;;;;;;35.50;65.80;;;;;;4857174;29;19941;-48
2022/08/14 13:34:26;;;;;;;;;;;35.50;66.20;;;;;;4848123;29;19916;-39
2022/08/14 13:36:53;;;;;;;;;;;35.50;66.90;;;;;;4844228;29;19912;-41
2022/08/14 13:39:19;;;;;;;;;;;35.60;67.50;;;;;;4852097;29;19912;-40
2022/08/14 13:41:47;;;;;;;;;;;35.70;67.40;;;;;;4848969;29;19932;-39
2022/08/14 13:44:14;;;;;;;;;;;35.70;67.40;;;;;;4847529;29;20289;-38
2022/08/14 13:49:24;;;;;;;;;;;35.30;66.80;;;;;;4848531;29;19931;-35
2022/08/14 13:51:51;;;;;;;;;;;35.10;67.40;;;;;;4858602;29;20285;-37
2022/08/14 13:54:19;;;;;;;;;;;35.10;66.90;;;;;;4849779;29;19912;-38
2022/08/14 13:56:45;;;;;;;;;;;35.20;67.00;;;;;;4841884;29;20434;-41
2022/08/14 13:59:11;;;;;;;;;;;35.30;68.00;;;;;;4860275;29;19935;-38
2022/08/14 14:01:40;;;;;;;;;;;35.20;67.60;;;;;;4846903;29;19916;-41
2022/08/14 14:04:10;;;;;;;;;;;35.00;68.10;;;;;;4849375;29;20006;-39
2022/08/14 14:06:36;;;;;;;;;;;34.90;68.40;;;;;;4843800;29;20060;-39
2022/08/14 14:09:01;;;;;;;;;;;34.90;67.70;;;;;;4847736;29;20007;-38
2022/08/14 14:11:27;;;;;;;;;;;34.90;67.60;;;;;;4853567;29;19917;-39
2022/08/14 14:13:53;;;;;;;;;;;35.00;67.30;;;;;;4841243;29;19916;-40
2022/08/14 14:16:19;;;;;;;;;;;35.00;67.70;;;;;;4851650;29;20396;-37
2022/08/14 14:18:50;;;;;;;;;;;34.90;68.10;;;;;;4849098;29;19931;-38
2022/08/14 14:21:17;;;;;;;;;;;34.80;67.90;;;;;;4844209;29;19919;-39
2022/08/14 14:23:43;;;;;;;;;;;34.90;68.60;;;;;;4848970;29;20289;-53
2022/08/14 14:26:11;;;;;;;;;;;35.10;68.30;;;;;;4848938;29;19927;-42
2022/08/14 14:28:40;;;;;;;;;;;35.20;67.40;;;;;;4842621;29;20365;-41
2022/08/14 14:31:06;;;;;;;;;;;35.30;68.30;;;;;;4848336;29;20357;-39
2022/08/14 14:33:34;;;;;;;;;;;35.40;67.80;;;;;;4849138;29;19936;-39
2022/08/14 14:36:01;;;;;;;;;;;35.40;68.40;;;;;;4843281;29;20349;-38
2022/08/14 14:38:30;;;;;;;;;;;35.40;67.80;;;;;;4825929;29;19912;-39
2022/08/14 14:40:56;;;;;;;;;;;35.40;67.30;;;;;;4849507;29;19908;-41
2022/08/14 14:43:23;;;;;;;;;;;35.50;67.10;;;;;;4846020;29;19920;-38